Amagansett, New York
Current Conditions -  °F | °C
As of 12:56 PM on Thursday 30 Oct 2014 (Local Time) from KGON Reporting Station
Scattered Clouds Scattered Clouds  
Wind Chill: 59°   Ceiling: Unl
Heat Index: 59°   Visibility: 10mi
Dew Point: 39°   Wind: 8mph
Humidity: 48%   Direction: 260°W
Pressure: 29.94"   Gusts: NA
Location:  40.97°N, 72.14°W
Report Text: KGON 301656Z 26007KT 220V320 10SM SCT075 15/04 A2994 RMK AO2 SLP136 T01500039
Loading
Personal Weather Stations






























Interactive Weather Map
Tropical Storm Tracking
New forecast layout! Learn more

10-Day Weather Forecast

Advertisements
Track Severe Weather on mobile